createdAt,value
2017-12-13T00:00:52.004Z,3.30
2017-12-13T00:03:24.653Z,2.73
2017-12-13T00:05:57.443Z,2.90
2017-12-13T00:08:30.111Z,2.70
2017-12-13T00:11:02.868Z,2.97
2017-12-13T00:13:35.421Z,2.90
2017-12-13T00:16:08.072Z,2.60
2017-12-13T00:18:40.553Z,2.53
2017-12-13T00:21:13.048Z,3.40
2017-12-13T00:23:46.248Z,3.50
2017-12-13T00:26:18.860Z,2.97
2017-12-13T00:28:51.654Z,2.90
2017-12-13T00:31:24.060Z,2.97
2017-12-13T00:33:57.379Z,3.03
2017-12-13T00:36:30.846Z,3.10
2017-12-13T00:39:03.697Z,2.83
2017-12-13T00:41:36.118Z,3.00
2017-12-13T00:44:09.332Z,4.03
2017-12-13T00:46:41.975Z,2.53
2017-12-13T00:49:14.693Z,2.90
2017-12-13T00:51:47.972Z,2.93
2017-12-13T00:54:21.280Z,3.27
2017-12-13T00:56:54.460Z,2.13
2017-12-13T00:59:27.700Z,3.23
2017-12-13T01:02:00.848Z,2.43
2017-12-13T01:04:33.941Z,2.60
2017-12-13T01:07:06.562Z,2.70
2017-12-13T01:09:39.149Z,2.70
2017-12-13T01:12:12.200Z,2.60
2017-12-13T01:14:45.216Z,2.67
2017-12-13T01:17:18.496Z,2.10
2017-12-13T01:19:51.514Z,2.30
2017-12-13T01:22:23.999Z,2.60
2017-12-13T01:24:56.389Z,3.00
2017-12-13T01:27:29.055Z,2.30
2017-12-13T01:30:02.433Z,2.23
2017-12-13T01:32:35.329Z,2.23
2017-12-13T01:35:07.746Z,2.97
2017-12-13T01:37:40.285Z,2.47
2017-12-13T01:40:13.138Z,2.40
2017-12-13T01:42:46.527Z,2.83
2017-12-13T01:45:19.134Z,2.50
2017-12-13T01:47:52.446Z,1.83
2017-12-13T01:50:25.775Z,2.50
2017-12-13T01:52:58.481Z,2.67
2017-12-13T01:55:31.051Z,2.07
2017-12-13T01:58:03.515Z,2.30
2017-12-13T02:00:37.043Z,1.83
2017-12-13T02:03:09.815Z,1.97
2017-12-13T02:05:43.952Z,2.77
2017-12-13T02:08:17.560Z,2.07
2017-12-13T02:10:50.774Z,2.07
2017-12-13T02:13:23.294Z,1.90
2017-12-13T02:15:56.420Z,2.00
2017-12-13T02:18:28.982Z,2.30
2017-12-13T02:21:02.477Z,2.60
2017-12-13T02:23:35.348Z,2.57
2017-12-13T02:26:07.886Z,2.37
2017-12-13T02:28:40.491Z,2.50
2017-12-13T02:31:13.009Z,2.00
2017-12-13T02:33:46.425Z,2.30
2017-12-13T02:36:19.149Z,2.30
2017-12-13T02:38:51.735Z,3.13
2017-12-13T02:41:24.160Z,2.47
2017-12-13T02:43:56.695Z,2.30
2017-12-13T02:46:29.444Z,2.83
2017-12-13T02:49:02.590Z,2.30
2017-12-13T02:51:35.656Z,2.00
2017-12-13T02:54:08.121Z,2.73
2017-12-13T02:56:40.767Z,1.63
2017-12-13T02:59:14.090Z,2.23
2017-12-13T03:01:47.452Z,3.03
2017-12-13T03:04:20.119Z,2.30
2017-12-13T03:06:52.470Z,2.30
2017-12-13T03:09:25.049Z,2.40
2017-12-13T03:11:58.260Z,2.37
2017-12-13T03:14:30.978Z,3.30
2017-12-13T03:17:03.530Z,2.37
2017-12-13T03:19:35.999Z,2.90
2017-12-13T03:22:08.869Z,2.17
2017-12-13T03:24:42.139Z,2.57
2017-12-13T03:27:15.243Z,1.70
2017-12-13T03:29:48.754Z,2.30
2017-12-13T03:32:21.662Z,2.30
2017-12-13T03:34:54.109Z,2.03
2017-12-13T03:37:26.766Z,2.50
2017-12-13T03:40:00.117Z,1.97
2017-12-13T03:42:33.255Z,2.13
2017-12-13T03:45:06.464Z,2.17
2017-12-13T03:47:39.805Z,1.80
2017-12-13T03:50:12.430Z,2.37
2017-12-13T03:52:45.626Z,2.53
2017-12-13T03:55:18.246Z,2.40
2017-12-13T03:57:50.651Z,1.50
2017-12-13T04:00:26.842Z,1.50
2017-12-13T04:02:59.287Z,1.77
2017-12-13T04:05:31.702Z,2.53
2017-12-13T04:08:04.338Z,1.97
2017-12-13T04:10:36.786Z,2.23
2017-12-13T04:13:10.139Z,2.27
2017-12-13T04:15:43.538Z,1.90
2017-12-13T04:18:16.346Z,2.30
2017-12-13T04:20:48.878Z,2.03
2017-12-13T04:23:22.053Z,2.00
2017-12-13T04:25:55.426Z,1.80
2017-12-13T04:28:28.272Z,2.47
2017-12-13T04:31:00.744Z,1.87
2017-12-13T04:33:33.933Z,2.27
2017-12-13T04:36:07.249Z,2.03
2017-12-13T04:38:40.175Z,2.07
2017-12-13T04:41:13.145Z,2.23
2017-12-13T04:43:45.919Z,1.80
2017-12-13T04:46:19.134Z,2.50
2017-12-13T04:48:51.508Z,2.40
2017-12-13T04:51:24.044Z,1.77
2017-12-13T04:53:56.631Z,1.77
2017-12-13T04:56:29.881Z,2.60
2017-12-13T04:59:02.833Z,2.20
2017-12-13T05:01:35.320Z,2.63
2017-12-13T05:04:07.789Z,2.43
2017-12-13T05:06:41.060Z,2.10
2017-12-13T05:09:13.528Z,1.73
2017-12-13T05:11:46.010Z,1.90
2017-12-13T05:14:18.631Z,2.00
2017-12-13T05:16:51.840Z,2.23
2017-12-13T05:19:24.594Z,2.23
2017-12-13T05:21:57.142Z,2.43
2017-12-13T05:24:30.518Z,2.10
2017-12-13T05:27:03.418Z,2.47
2017-12-13T05:29:36.593Z,2.80
2017-12-13T05:32:09.196Z,2.70
2017-12-13T05:34:42.432Z,2.10
2017-12-13T05:37:15.193Z,1.90
2017-12-13T05:39:47.652Z,1.50
2017-12-13T05:42:20.167Z,1.90
2017-12-13T05:44:53.479Z,2.53
2017-12-13T05:47:26.236Z,2.00
2017-12-13T05:49:59.341Z,1.90
2017-12-13T05:52:32.342Z,1.60
2017-12-13T05:55:04.806Z,2.20
2017-12-13T05:57:37.365Z,1.63
2017-12-13T06:00:11.029Z,2.47
2017-12-13T06:02:43.828Z,1.87
2017-12-13T06:05:16.753Z,2.17
2017-12-13T06:07:49.458Z,1.87
2017-12-13T06:10:22.284Z,2.13
2017-12-13T06:12:55.505Z,2.10
2017-12-13T06:15:28.150Z,2.37
2017-12-13T06:18:00.556Z,1.90
2017-12-13T06:20:34.015Z,2.00
2017-12-13T06:23:06.581Z,1.70
2017-12-13T06:25:39.098Z,1.90
2017-12-13T06:28:13.189Z,2.20
2017-12-13T06:30:45.798Z,1.73
2017-12-13T06:33:18.370Z,2.27
2017-12-13T06:35:51.784Z,2.10
2017-12-13T06:38:24.247Z,1.57
2017-12-13T06:40:56.839Z,1.20
2017-12-13T06:43:30.064Z,2.10
2017-12-13T06:46:02.782Z,1.50
2017-12-13T06:48:35.435Z,2.47
2017-12-13T06:51:08.816Z,2.37
2017-12-13T06:53:41.501Z,2.30
2017-12-13T06:56:15.310Z,2.17
2017-12-13T06:58:49.372Z,2.13
2017-12-13T07:01:21.846Z,1.90
2017-12-13T07:03:54.373Z,2.13
2017-12-13T07:06:26.964Z,2.30
2017-12-13T07:08:59.478Z,2.33
2017-12-13T07:11:32.496Z,1.50
2017-12-13T07:14:04.973Z,2.47
2017-12-13T07:16:37.647Z,1.60
2017-12-13T07:19:10.296Z,2.13
2017-12-13T07:21:42.658Z,2.47
2017-12-13T07:24:15.223Z,2.20
2017-12-13T07:26:47.735Z,1.80
2017-12-13T07:29:21.052Z,1.80
2017-12-13T07:31:53.643Z,2.80
2017-12-13T07:34:26.020Z,1.73
2017-12-13T07:36:58.664Z,2.10
2017-12-13T07:39:31.799Z,2.33
2017-12-13T07:42:04.841Z,2.40
2017-12-13T07:44:38.160Z,2.20
2017-12-13T07:47:11.816Z,1.67
2017-12-13T07:49:44.610Z,3.03
2017-12-13T07:52:17.107Z,2.10
2017-12-13T07:54:51.312Z,2.63
2017-12-13T07:57:24.309Z,2.60
2017-12-13T07:59:56.780Z,1.80
2017-12-13T08:02:29.219Z,2.23
2017-12-13T08:05:02.690Z,2.10
2017-12-13T08:07:35.633Z,1.70
2017-12-13T08:10:08.845Z,1.37
2017-12-13T08:12:41.971Z,1.73
2017-12-13T08:15:15.128Z,1.70
2017-12-13T08:17:47.735Z,1.33
2017-12-13T08:20:20.330Z,1.60
2017-12-13T08:22:52.937Z,2.53
2017-12-13T08:25:25.405Z,1.13
2017-12-13T08:27:59.065Z,1.40
2017-12-13T08:30:31.686Z,1.80
2017-12-13T08:33:04.431Z,1.50
2017-12-13T08:35:37.736Z,1.53
2017-12-13T08:38:10.403Z,1.83
2017-12-13T08:40:43.706Z,1.60
2017-12-13T08:43:16.362Z,1.40
2017-12-13T08:45:50.554Z,1.30
2017-12-13T08:48:23.515Z,1.10
2017-12-13T08:50:56.631Z,1.53
2017-12-13T08:53:29.436Z,1.37
2017-12-13T08:56:01.878Z,1.33
2017-12-13T08:58:34.337Z,1.23
2017-12-13T09:01:07.682Z,1.20
2017-12-13T09:03:40.600Z,1.50
2017-12-13T09:06:13.222Z,1.00
2017-12-13T09:08:46.505Z,1.10
2017-12-13T09:11:19.709Z,1.13
2017-12-13T09:13:52.921Z,1.27
2017-12-13T09:16:25.476Z,1.07
2017-12-13T09:18:58.052Z,1.40
2017-12-13T09:21:31.393Z,1.23
2017-12-13T09:24:04.342Z,1.30
2017-12-13T09:26:37.966Z,1.10
2017-12-13T09:29:10.867Z,1.03
2017-12-13T09:31:44.310Z,0.97
2017-12-13T09:34:18.098Z,1.17
2017-12-13T09:36:51.001Z,1.33
2017-12-13T09:39:23.646Z,1.03
2017-12-13T09:41:56.069Z,1.37
2017-12-13T09:44:28.710Z,1.27
2017-12-13T09:47:01.226Z,1.20
2017-12-13T09:49:33.675Z,1.20
2017-12-13T09:52:06.084Z,1.30
2017-12-13T09:54:38.803Z,1.07
2017-12-13T09:57:12.132Z,1.10
2017-12-13T09:59:44.740Z,0.90
2017-12-13T10:02:18.186Z,1.00
2017-12-13T10:04:50.956Z,1.10
2017-12-13T10:07:24.282Z,1.00
2017-12-13T10:09:56.746Z,0.90
2017-12-13T10:12:29.374Z,1.10
2017-12-13T10:15:02.694Z,0.80
2017-12-13T10:17:36.301Z,0.77
2017-12-13T10:20:09.110Z,1.00
2017-12-13T10:22:41.778Z,0.90
2017-12-13T10:25:14.189Z,0.80
2017-12-13T10:27:48.301Z,0.90
2017-12-13T10:30:21.168Z,1.00
2017-12-13T10:32:54.299Z,0.90
2017-12-13T10:35:27.712Z,0.97
2017-12-13T10:38:01.467Z,1.27
2017-12-13T10:40:34.328Z,1.10
2017-12-13T10:43:07.615Z,1.10
2017-12-13T10:45:40.385Z,1.13
2017-12-13T10:48:13.021Z,1.27
2017-12-13T10:50:46.553Z,0.93
2017-12-13T10:53:18.933Z,1.20
2017-12-13T10:55:51.372Z,1.90
2017-12-13T10:58:24.704Z,1.50
2017-12-13T11:00:57.374Z,1.00
2017-12-13T11:03:30.644Z,1.67
2017-12-13T11:06:03.380Z,1.13
2017-12-13T11:08:35.898Z,0.93
2017-12-13T11:11:08.476Z,1.20
2017-12-13T11:13:40.931Z,1.00
2017-12-13T11:16:13.375Z,1.53
2017-12-13T11:18:45.937Z,0.97
2017-12-13T11:21:19.203Z,0.90
2017-12-13T11:23:51.934Z,1.00
2017-12-13T11:26:24.558Z,1.17
2017-12-13T11:28:57.880Z,1.30
2017-12-13T11:31:30.474Z,1.00
2017-12-13T11:34:02.933Z,1.10
2017-12-13T11:36:35.422Z,1.00
2017-12-13T11:39:07.958Z,1.50
2017-12-13T11:41:41.231Z,1.30
2017-12-13T11:44:15.236Z,1.10
2017-12-13T11:46:48.562Z,1.30
2017-12-13T11:49:21.424Z,1.10
2017-12-13T11:51:54.035Z,1.27
2017-12-13T11:54:33.013Z,1.13
2017-12-13T11:57:05.553Z,1.10
2017-12-13T11:59:37.944Z,1.33
2017-12-13T12:02:10.689Z,1.20
2017-12-13T12:04:44.189Z,1.37
2017-12-13T12:07:17.397Z,1.30
2017-12-13T12:09:49.932Z,1.40
2017-12-13T12:12:22.398Z,1.47
2017-12-13T12:15:01.970Z,1.87
2017-12-13T12:17:34.733Z,1.63
2017-12-13T12:20:07.209Z,1.10
2017-12-13T12:22:39.811Z,1.03
2017-12-13T12:25:13.082Z,1.40
2017-12-13T12:27:45.929Z,1.40
2017-12-13T12:30:19.426Z,1.40
2017-12-13T12:32:52.158Z,1.20
2017-12-13T12:35:24.715Z,1.10
2017-12-13T12:37:57.039Z,1.20
2017-12-13T12:40:29.570Z,1.00
2017-12-13T12:43:02.063Z,1.00
2017-12-13T12:45:34.524Z,1.07
2017-12-13T12:48:07.306Z,1.10
2017-12-13T12:50:40.652Z,1.10
2017-12-13T12:53:13.248Z,1.17
2017-12-13T12:55:46.053Z,1.00
2017-12-13T12:58:19.667Z,1.13
2017-12-13T13:00:52.219Z,1.30
2017-12-13T13:03:25.568Z,0.97
2017-12-13T13:05:58.275Z,0.90
2017-12-13T13:08:30.863Z,1.10
2017-12-13T13:11:03.572Z,1.20
2017-12-13T13:13:36.159Z,1.20
2017-12-13T13:16:09.343Z,10.43
2017-12-13T13:18:43.052Z,2.60
2017-12-13T13:21:15.656Z,1.43
2017-12-13T13:23:49.817Z,1.27
2017-12-13T13:26:23.653Z,1.10
2017-12-13T13:28:56.284Z,0.90
2017-12-13T13:31:29.712Z,1.07
2017-12-13T13:34:02.144Z,1.30
2017-12-13T13:36:34.864Z,1.27
2017-12-13T13:39:08.077Z,0.80
2017-12-13T13:41:40.917Z,0.93
2017-12-13T13:44:14.240Z,1.50
2017-12-13T13:46:47.814Z,1.00
2017-12-13T13:49:20.480Z,1.30
2017-12-13T13:51:52.954Z,1.20
2017-12-13T13:54:26.318Z,1.37
2017-12-13T13:56:58.909Z,1.27
2017-12-13T13:59:31.368Z,1.00
2017-12-13T14:02:04.032Z,1.47
2017-12-13T14:04:37.388Z,1.10
2017-12-13T14:07:09.917Z,1.23
2017-12-13T14:09:43.240Z,1.30
2017-12-13T14:12:17.193Z,6.60
2017-12-13T14:14:51.132Z,5.17
2017-12-13T14:17:24.610Z,4.53
2017-12-13T14:19:57.706Z,1.60
2017-12-13T14:22:30.260Z,1.50
2017-12-13T14:25:02.744Z,1.30
2017-12-13T14:27:35.414Z,1.47
2017-12-13T14:30:07.862Z,2.20
2017-12-13T14:32:40.246Z,1.43
2017-12-13T14:35:12.723Z,1.40
2017-12-13T14:37:45.304Z,1.60
2017-12-13T14:40:17.698Z,1.60
2017-12-13T14:42:50.333Z,1.50
2017-12-13T14:45:22.763Z,2.10
2017-12-13T14:47:55.257Z,1.60
2017-12-13T14:50:29.717Z,1.40
2017-12-13T14:53:02.408Z,3.10
2017-12-13T14:55:35.611Z,2.23
2017-12-13T14:58:08.374Z,2.20
2017-12-13T15:00:41.640Z,2.63
2017-12-13T15:03:15.103Z,2.03
2017-12-13T15:05:47.812Z,1.97
2017-12-13T15:08:20.341Z,2.03
2017-12-13T15:10:52.918Z,1.50
2017-12-13T15:13:25.434Z,2.30
2017-12-13T15:15:58.124Z,1.77
2017-12-13T15:18:31.306Z,2.00
2017-12-13T15:21:04.522Z,1.63
2017-12-13T15:23:37.727Z,2.10
2017-12-13T15:26:10.726Z,1.70
2017-12-13T15:28:43.328Z,1.90
2017-12-13T15:31:16.615Z,2.37
2017-12-13T15:33:49.422Z,2.67
2017-12-13T15:36:21.937Z,1.80
2017-12-13T15:38:54.392Z,1.93
2017-12-13T15:41:26.948Z,1.87
2017-12-13T15:43:59.545Z,2.40
2017-12-13T15:46:32.055Z,2.27
2017-12-13T15:49:05.419Z,2.60
2017-12-13T15:51:38.628Z,3.20
2017-12-13T15:54:11.739Z,3.00
2017-12-13T15:56:44.952Z,3.00
2017-12-13T15:59:17.393Z,3.67
2017-12-13T16:01:49.965Z,2.83
2017-12-13T16:04:22.356Z,2.30
2017-12-13T16:06:54.781Z,3.90
2017-12-13T16:09:27.204Z,3.00
2017-12-13T16:11:59.924Z,2.90
2017-12-13T16:14:32.474Z,3.20
2017-12-13T16:17:05.130Z,3.00
2017-12-13T16:19:37.781Z,3.00
2017-12-13T16:22:10.997Z,2.90
2017-12-13T16:24:43.872Z,3.30
2017-12-13T16:27:16.201Z,3.43
2017-12-13T16:29:49.638Z,3.03
2017-12-13T16:32:22.919Z,2.90
2017-12-13T16:34:56.398Z,3.50
2017-12-13T16:37:29.515Z,3.17
2017-12-13T16:40:03.015Z,4.10
2017-12-13T16:42:36.034Z,3.00
2017-12-13T16:45:09.412Z,4.23
2017-12-13T16:47:42.752Z,3.70
2017-12-13T16:50:16.102Z,3.00
2017-12-13T16:52:49.038Z,2.90
2017-12-13T16:55:21.549Z,3.33
2017-12-13T16:57:54.058Z,4.90
2017-12-13T17:00:27.045Z,7.30
2017-12-13T17:03:00.315Z,4.37
2017-12-13T17:05:32.973Z,3.50
2017-12-13T17:08:06.309Z,3.73
2017-12-13T17:10:39.161Z,2.80
2017-12-13T17:13:11.702Z,2.40
2017-12-13T17:15:44.169Z,2.30
2017-12-13T17:18:17.540Z,3.30
2017-12-13T17:20:50.085Z,2.60
2017-12-13T17:23:23.472Z,2.50
2017-12-13T17:25:56.052Z,2.57
2017-12-13T17:28:28.660Z,3.37
2017-12-13T17:31:01.582Z,3.93
2017-12-13T17:33:34.062Z,3.90
2017-12-13T17:36:06.684Z,2.77
2017-12-13T17:38:39.249Z,2.40
2017-12-13T17:41:13.066Z,2.87
2017-12-13T17:43:46.224Z,2.87
2017-12-13T17:46:19.283Z,2.97
2017-12-13T17:48:52.458Z,2.43
2017-12-13T17:51:25.487Z,2.60
2017-12-13T17:53:58.968Z,3.03
2017-12-13T17:56:32.347Z,3.13
2017-12-13T17:59:05.006Z,2.20
2017-12-13T18:01:37.915Z,2.77
2017-12-13T18:04:11.171Z,3.03
2017-12-13T18:06:44.587Z,3.00
2017-12-13T18:09:17.390Z,2.23
2017-12-13T18:11:50.005Z,2.83
2017-12-13T18:14:23.694Z,3.03
2017-12-13T18:16:56.846Z,2.77
2017-12-13T18:19:30.297Z,2.10
2017-12-13T18:22:03.014Z,2.07
2017-12-13T18:24:36.466Z,2.00
2017-12-13T18:27:09.440Z,2.20
2017-12-13T18:29:42.240Z,1.50
2017-12-13T18:32:15.304Z,1.80
2017-12-13T18:34:49.175Z,2.37
2017-12-13T18:37:24.205Z,1.90
2017-12-13T18:39:58.936Z,2.03
2017-12-13T18:42:34.223Z,1.80
2017-12-13T18:45:10.048Z,2.23
2017-12-13T18:47:45.461Z,1.67
2017-12-13T18:50:20.407Z,1.63
2017-12-13T18:52:56.135Z,1.40
2017-12-13T18:55:32.192Z,1.10
2017-12-13T18:58:07.587Z,1.53
2017-12-13T19:00:44.120Z,2.13
2017-12-13T19:03:19.923Z,1.80
2017-12-13T19:05:55.168Z,1.80
2017-12-13T19:08:30.588Z,1.30
2017-12-13T19:11:06.635Z,1.73
2017-12-13T19:13:41.663Z,1.50
2017-12-13T19:16:17.442Z,1.33
2017-12-13T19:18:53.176Z,1.53
2017-12-13T19:21:28.740Z,1.60
2017-12-13T19:24:04.631Z,1.63
2017-12-13T19:26:40.996Z,1.53
2017-12-13T19:29:17.212Z,1.67
2017-12-13T19:31:52.617Z,1.73
2017-12-13T19:34:27.952Z,1.67
2017-12-13T19:37:04.646Z,2.10
2017-12-13T19:39:39.825Z,3.70
2017-12-13T19:42:15.483Z,1.97
2017-12-13T19:44:51.886Z,1.83
2017-12-13T19:47:27.592Z,2.47
2017-12-13T19:50:02.915Z,2.70
2017-12-13T19:52:39.040Z,3.77
2017-12-13T19:55:14.835Z,2.40
2017-12-13T19:57:50.734Z,1.50
2017-12-13T20:00:27.190Z,2.13
2017-12-13T20:03:03.363Z,2.03
2017-12-13T20:05:38.700Z,1.77
2017-12-13T20:08:14.524Z,1.57
2017-12-13T20:10:49.412Z,1.93
2017-12-13T20:13:25.884Z,1.60
2017-12-13T20:16:01.531Z,1.60
2017-12-13T20:18:38.230Z,1.60
2017-12-13T20:21:14.760Z,1.50
2017-12-13T20:23:50.388Z,1.67
2017-12-13T20:26:25.610Z,1.67
2017-12-13T20:29:01.131Z,1.47
2017-12-13T20:31:37.237Z,1.67
2017-12-13T20:34:12.363Z,1.07
2017-12-13T20:36:47.851Z,1.50
2017-12-13T20:39:23.159Z,1.70
2017-12-13T20:41:58.843Z,1.50
2017-12-13T20:44:34.965Z,1.90
2017-12-13T20:47:10.836Z,1.30
2017-12-13T20:49:46.829Z,1.37
2017-12-13T20:52:22.997Z,1.57
2017-12-13T20:54:58.818Z,1.30
2017-12-13T20:57:35.438Z,0.93
2017-12-13T21:00:12.205Z,1.37
2017-12-13T21:02:47.219Z,1.33
2017-12-13T21:05:22.236Z,2.10
2017-12-13T21:07:57.810Z,2.50
2017-12-13T21:10:33.557Z,2.10
2017-12-13T21:13:09.083Z,1.40
2017-12-13T21:15:44.415Z,1.30
2017-12-13T21:18:19.578Z,1.10
2017-12-13T21:20:56.216Z,0.80
2017-12-13T21:23:31.773Z,1.00
2017-12-13T21:26:07.041Z,1.10
2017-12-13T21:28:43.320Z,1.70
2017-12-13T21:31:18.743Z,1.30
2017-12-13T21:33:54.344Z,2.47
2017-12-13T21:36:30.357Z,1.80
2017-12-13T21:39:06.272Z,1.60
2017-12-13T21:41:42.255Z,1.63
2017-12-13T21:44:17.799Z,1.27
2017-12-13T21:46:53.673Z,1.40
2017-12-13T21:49:29.334Z,1.37
2017-12-13T21:52:04.649Z,1.20
2017-12-13T21:54:40.106Z,1.10
2017-12-13T21:57:15.485Z,1.37
2017-12-13T21:59:51.444Z,1.03
2017-12-13T22:02:26.818Z,0.83
2017-12-13T22:04:59.957Z,1.43
2017-12-13T22:07:33.669Z,1.30
2017-12-13T22:10:06.898Z,3.67
2017-12-13T22:12:41.007Z,1.20
2017-12-13T22:15:13.933Z,0.87
2017-12-13T22:17:46.448Z,0.87
2017-12-13T22:20:18.947Z,0.90
2017-12-13T22:22:52.479Z,1.37
2017-12-13T22:25:24.993Z,1.37
2017-12-13T22:27:58.811Z,0.97
2017-12-13T22:30:31.728Z,1.83
2017-12-13T22:33:05.171Z,1.30
2017-12-13T22:35:37.994Z,1.20
2017-12-13T22:38:10.643Z,1.00
2017-12-13T22:40:43.991Z,1.20
2017-12-13T22:43:17.067Z,1.20
2017-12-13T22:45:49.755Z,0.80
2017-12-13T22:48:22.621Z,1.30
2017-12-13T22:50:55.232Z,1.00
2017-12-13T22:53:27.764Z,1.10
2017-12-13T22:56:00.290Z,1.37
2017-12-13T22:58:33.612Z,1.20
2017-12-13T23:01:06.416Z,1.00
2017-12-13T23:03:40.005Z,1.40
2017-12-13T23:06:12.445Z,0.80
2017-12-13T23:08:45.817Z,1.27
2017-12-13T23:11:18.338Z,1.47
2017-12-13T23:13:51.018Z,1.00
2017-12-13T23:16:24.331Z,1.73
2017-12-13T23:18:57.419Z,1.00
2017-12-13T23:21:30.670Z,1.60
2017-12-13T23:24:03.955Z,1.20
2017-12-13T23:26:36.837Z,0.90
2017-12-13T23:29:09.494Z,1.13
2017-12-13T23:31:41.979Z,1.10
2017-12-13T23:34:14.519Z,1.07
2017-12-13T23:36:47.906Z,1.93
2017-12-13T23:39:20.599Z,1.33
2017-12-13T23:41:53.534Z,1.40
2017-12-13T23:44:26.825Z,1.60
2017-12-13T23:46:59.664Z,1.00
2017-12-13T23:49:32.289Z,1.10
2017-12-13T23:52:04.802Z,0.90
2017-12-13T23:54:37.514Z,1.03
2017-12-13T23:57:10.063Z,1.00
2017-12-13T23:59:43.398Z,1.43
